Time;durP1;ratioP1;P1;durP2;ratioP2;P2;SDS_P1;SDS_P2;PMS_P1;PMS_P2;Temp;Humidity;BMP_temperature;BMP_pressure;BME280_temperature;BME280_humidity;BME280_pressure;Samples;Min_cycle;Max_cycle;Signal;HPM_P1;HPM_P2
2022/02/25 00:01:47;;;;;;;50.47;22.83;;;;;;;;;;5093195;28;20396;-72
2022/02/25 00:04:13;;;;;;;57.10;26.05;;;;;;;;;;5075055;28;20032;-71
2022/02/25 00:06:40;;;;;;;68.65;30.20;;;;;;;;;;5093435;28;20103;-70
2022/02/25 00:09:07;;;;;;;52.17;23.17;;;;;;;;;;5075226;28;20124;-70
2022/02/25 00:11:33;;;;;;;60.55;25.30;;;;;;;;;;5093376;28;20073;-71
2022/02/25 00:14:00;;;;;;;51.30;25.00;;;;;;;;;;5074811;28;20044;-71
2022/02/25 00:16:26;;;;;;;55.00;24.83;;;;;;;;;;5093600;28;20468;-72
2022/02/25 00:18:52;;;;;;;60.92;27.55;;;;;;;;;;5075077;28;20473;-70
2022/02/25 00:21:19;;;;;;;69.53;30.45;;;;;;;;;;5075099;28;20107;-71
2022/02/25 00:23:45;;;;;;;65.38;26.17;;;;;;;;;;5093243;28;20028;-72
2022/02/25 00:26:11;;;;;;;60.67;25.52;;;;;;;;;;5093197;28;20063;-71
2022/02/25 00:28:38;;;;;;;62.10;26.92;;;;;;;;;;5074982;28;20028;-71
2022/02/25 00:31:04;;;;;;;61.22;25.15;;;;;;;;;;5075023;28;20143;-71
2022/02/25 00:33:30;;;;;;;59.25;25.63;;;;;;;;;;5093085;28;20104;-71
2022/02/25 00:35:56;;;;;;;57.95;24.40;;;;;;;;;;5074924;28;20111;-71
2022/02/25 00:38:22;;;;;;;52.80;21.65;;;;;;;;;;5093082;28;20461;-71
2022/02/25 00:40:49;;;;;;;47.15;19.63;;;;;;;;;;5074956;28;20028;-73
2022/02/25 00:43:15;;;;;;;42.70;19.55;;;;;;;;;;5092992;28;20020;-70
2022/02/25 00:45:41;;;;;;;45.00;18.98;;;;;;;;;;5093282;28;20028;-71
2022/02/25 00:48:07;;;;;;;41.88;18.77;;;;;;;;;;5093023;28;20115;-72
2022/02/25 00:50:34;;;;;;;46.17;20.92;;;;;;;;;;5074779;28;20139;-72
2022/02/25 00:53:00;;;;;;;35.08;17.77;;;;;;;;;;5074775;28;20115;-73
2022/02/25 00:55:26;;;;;;;40.50;17.50;;;;;;;;;;5074729;28;20067;-71
2022/02/25 00:57:53;;;;;;;44.83;18.67;;;;;;;;;;5092926;28;20028;-71
2022/02/25 01:00:19;;;;;;;39.30;18.58;;;;;;;;;;5074681;28;20066;-71
2022/02/25 01:02:46;;;;;;;38.35;19.20;;;;;;;;;;5092865;28;20031;-71
2022/02/25 01:05:12;;;;;;;43.20;20.00;;;;;;;;;;5074668;28;20059;-70
2022/02/25 01:07:42;;;;;;;53.67;21.70;;;;;;;;;;5092525;28;20024;-69
2022/02/25 01:10:10;;;;;;;63.00;25.73;;;;;;;;;;5075834;28;20484;-68
2022/02/25 01:12:36;;;;;;;53.42;25.38;;;;;;;;;;5096704;28;20415;-71
2022/02/25 01:15:03;;;;;;;48.42;21.80;;;;;;;;;;5096105;28;20051;-70
2022/02/25 01:17:29;;;;;;;47.72;21.15;;;;;;;;;;5096867;28;20103;-72
2022/02/25 01:19:59;;;;;;;50.25;22.15;;;;;;;;;;5078325;28;20115;-72
2022/02/25 01:22:26;;;;;;;47.10;20.80;;;;;;;;;;5078278;28;20055;-71
2022/02/25 01:24:52;;;;;;;48.35;21.25;;;;;;;;;;5078315;28;20215;-74
2022/02/25 01:27:19;;;;;;;52.53;23.02;;;;;;;;;;5078198;28;20053;-70
2022/02/25 01:29:45;;;;;;;51.78;22.17;;;;;;;;;;5096415;28;20020;-73
2022/02/25 01:32:12;;;;;;;46.97;20.83;;;;;;;;;;5096344;28;20027;-71
2022/02/25 01:34:38;;;;;;;62.30;24.45;;;;;;;;;;5096245;28;20028;-71
2022/02/25 01:37:05;;;;;;;63.47;27.88;;;;;;;;;;5096202;28;20153;-70
2022/02/25 01:39:31;;;;;;;79.47;31.58;;;;;;;;;;5096185;28;20031;-73
2022/02/25 01:41:58;;;;;;;60.63;25.10;;;;;;;;;;5096139;28;20834;-71
2022/02/25 01:44:26;;;;;;;64.63;25.80;;;;;;;;;;5096179;28;20071;-73
2022/02/25 01:46:56;;;;;;;48.10;22.42;;;;;;;;;;5096079;28;20028;-72
2022/02/25 01:49:23;;;;;;;47.65;20.75;;;;;;;;;;5096116;28;20046;-72
2022/02/25 01:51:53;;;;;;;52.38;24.20;;;;;;;;;;5096001;28;20020;-74
2022/02/25 01:54:19;;;;;;;62.25;27.23;;;;;;;;;;5095877;28;20068;-74
2022/02/25 01:56:45;;;;;;;49.47;21.23;;;;;;;;;;5077645;28;20506;-70
2022/02/25 01:59:11;;;;;;;46.50;22.23;;;;;;;;;;5077680;28;20107;-72
2022/02/25 02:01:38;;;;;;;46.70;21.45;;;;;;;;;;5095789;28;20026;-71
2022/02/25 02:04:11;;;;;;;50.45;23.23;;;;;;;;;;5077529;28;20031;-73
2022/02/25 02:06:38;;;;;;;66.18;28.10;;;;;;;;;;5077519;28;20119;-71
2022/02/25 02:09:05;;;;;;;60.38;27.27;;;;;;;;;;5095884;28;20044;-73
2022/02/25 02:11:36;;;;;;;60.03;26.35;;;;;;;;;;5095830;28;20036;-72
2022/02/25 02:14:04;;;;;;;56.15;24.45;;;;;;;;;;5073728;28;20076;-72
2022/02/25 02:16:30;;;;;;;53.65;25.05;;;;;;;;;;5073956;28;20036;-73
2022/02/25 02:18:57;;;;;;;63.30;25.48;;;;;;;;;;5073924;28;20025;-72
2022/02/25 02:21:24;;;;;;;61.88;27.38;;;;;;;;;;5074254;28;20500;-72
2022/02/25 02:23:51;;;;;;;55.75;24.50;;;;;;;;;;5075167;28;20107;-72
2022/02/25 02:26:18;;;;;;;54.58;26.30;;;;;;;;;;5073834;28;20032;-74
2022/02/25 02:28:44;;;;;;;54.03;23.80;;;;;;;;;;5075024;28;20115;-74
2022/02/25 02:31:10;;;;;;;57.40;27.50;;;;;;;;;;5075003;28;20025;-72
2022/02/25 02:33:37;;;;;;;66.78;34.10;;;;;;;;;;5074924;28;20038;-72
2022/02/25 02:36:04;;;;;;;72.68;33.13;;;;;;;;;;5073553;28;20470;-73
2022/02/25 02:38:31;;;;;;;86.40;38.40;;;;;;;;;;5074539;28;20366;-72
2022/02/25 02:40:57;;;;;;;87.93;41.83;;;;;;;;;;5074764;28;20033;-72
2022/02/25 02:43:24;;;;;;;89.55;40.42;;;;;;;;;;5073383;28;20055;-71
2022/02/25 02:45:50;;;;;;;95.05;44.63;;;;;;;;;;5073428;28;20123;-69
2022/02/25 02:48:16;;;;;;;93.93;42.33;;;;;;;;;;5073305;28;20021;-73
2022/02/25 02:50:43;;;;;;;96.88;43.63;;;;;;;;;;5073042;28;20131;-71
2022/02/25 02:53:09;;;;;;;97.50;44.35;;;;;;;;;;5073241;28;20457;-73
2022/02/25 02:55:36;;;;;;;97.63;43.03;;;;;;;;;;5074455;28;20028;-70
2022/02/25 02:58:02;;;;;;;98.10;41.58;;;;;;;;;;5074453;28;20029;-73
2022/02/25 03:00:28;;;;;;;91.68;40.78;;;;;;;;;;5074159;28;20140;-70
2022/02/25 03:02:55;;;;;;;90.00;39.83;;;;;;;;;;5074059;28;20065;-72
2022/02/25 03:05:22;;;;;;;84.85;36.38;;;;;;;;;;5073051;28;20032;-73
2022/02/25 03:07:48;;;;;;;70.68;35.17;;;;;;;;;;5074262;28;20111;-69
2022/02/25 03:10:15;;;;;;;79.85;35.83;;;;;;;;;;5074252;28;20032;-72
2022/02/25 03:12:42;;;;;;;81.22;37.08;;;;;;;;;;5074120;28;20086;-71
2022/02/25 03:15:09;;;;;;;79.65;37.53;;;;;;;;;;5088416;28;20087;-69
2022/02/25 03:17:37;;;;;;;87.88;40.28;;;;;;;;;;5076095;28;20035;-71
2022/02/25 03:20:05;;;;;;;79.80;40.30;;;;;;;;;;5094295;28;20024;-72
2022/02/25 03:22:31;;;;;;;82.35;40.85;;;;;;;;;;5075996;28;20350;-72
2022/02/25 03:24:58;;;;;;;79.47;40.45;;;;;;;;;;5094186;28;20486;-70
2022/02/25 03:27:24;;;;;;;68.68;33.08;;;;;;;;;;5094155;28;20107;-72
2022/02/25 03:29:51;;;;;;;73.07;33.67;;;;;;;;;;5094341;28;20024;-72
2022/02/25 03:32:17;;;;;;;64.90;31.60;;;;;;;;;;5075694;28;20024;-71
2022/02/25 03:34:44;;;;;;;61.78;30.92;;;;;;;;;;5093853;28;20122;-70
2022/02/25 03:37:10;;;;;;;64.80;31.80;;;;;;;;;;5075806;28;20115;-71
2022/02/25 03:39:37;;;;;;;75.35;33.15;;;;;;;;;;5075386;28;20361;-72
2022/02/25 03:42:03;;;;;;;69.75;33.53;;;;;;;;;;5103386;28;20451;-70
2022/02/25 03:44:30;;;;;;;59.63;29.33;;;;;;;;;;5083678;28;20028;-71
2022/02/25 03:46:56;;;;;;;54.10;25.55;;;;;;;;;;5083742;28;20047;-72
2022/02/25 03:49:22;;;;;;;48.95;23.75;;;;;;;;;;5103535;28;20024;-72
2022/02/25 03:51:48;;;;;;;51.17;25.65;;;;;;;;;;5105508;28;20060;-71
2022/02/25 03:54:14;;;;;;;67.30;34.58;;;;;;;;;;5104363;28;20023;-72
2022/02/25 03:56:41;;;;;;;63.17;28.85;;;;;;;;;;5087716;28;20107;-73
2022/02/25 03:59:07;;;;;;;64.97;28.17;;;;;;;;;;5077973;28;20456;-74
2022/02/25 04:01:33;;;;;;;75.30;31.13;;;;;;;;;;5093812;28;20111;-71
2022/02/25 04:03:59;;;;;;;57.97;29.15;;;;;;;;;;5075285;28;20028;-72
2022/02/25 04:06:27;;;;;;;54.20;28.58;;;;;;;;;;5093491;28;20030;-72
2022/02/25 04:08:53;;;;;;;61.55;30.58;;;;;;;;;;5093215;28;20504;-72
2022/02/25 04:11:21;;;;;;;68.88;32.90;;;;;;;;;;5093401;28;20116;-74
2022/02/25 04:13:47;;;;;;;82.22;36.85;;;;;;;;;;5074936;28;20138;-72
2022/02/25 04:16:13;;;;;;;70.68;32.92;;;;;;;;;;5075215;28;20195;-73
2022/02/25 04:18:40;;;;;;;76.57;34.58;;;;;;;;;;5075200;28;20403;-72
2022/02/25 04:21:08;;;;;;;67.45;33.13;;;;;;;;;;5075026;28;20024;-72
2022/02/25 04:23:34;;;;;;;67.38;32.22;;;;;;;;;;5073244;28;20123;-71
2022/02/25 04:26:01;;;;;;;76.47;38.15;;;;;;;;;;5073026;28;20077;-69
2022/02/25 04:28:27;;;;;;;77.53;35.88;;;;;;;;;;5091156;28;20024;-71
2022/02/25 04:30:54;;;;;;;75.85;34.72;;;;;;;;;;5073418;28;20039;-72
2022/02/25 04:33:20;;;;;;;73.65;35.15;;;;;;;;;;5091607;28;20158;-70
2022/02/25 04:35:46;;;;;;;79.80;33.83;;;;;;;;;;5091489;28;20491;-70
2022/02/25 04:38:13;;;;;;;89.15;43.35;;;;;;;;;;5091960;28;20103;-72
2022/02/25 04:40:39;;;;;;;90.75;41.53;;;;;;;;;;5093034;28;20108;-71
2022/02/25 04:43:06;;;;;;;89.88;38.75;;;;;;;;;;5093081;28;20032;-71
2022/02/25 04:45:32;;;;;;;73.45;35.67;;;;;;;;;;5077142;28;20028;-69
2022/02/25 04:47:58;;;;;;;91.32;37.33;;;;;;;;;;5079010;28;20113;-70
2022/02/25 04:50:25;;;;;;;90.72;40.05;;;;;;;;;;5097127;28;20024;-70
2022/02/25 04:52:51;;;;;;;102.32;43.58;;;;;;;;;;5097170;28;20024;-72
2022/02/25 04:55:20;;;;;;;82.68;39.78;;;;;;;;;;5078763;28;20032;-73
2022/02/25 04:57:46;;;;;;;82.55;37.25;;;;;;;;;;5078751;28;20031;-72
2022/02/25 05:00:13;;;;;;;82.68;37.70;;;;;;;;;;5078719;28;20563;-72
2022/02/25 05:02:40;;;;;;;93.53;41.28;;;;;;;;;;5078610;28;20029;-75
2022/02/25 05:05:07;;;;;;;77.70;36.20;;;;;;;;;;5078599;28;20454;-70
2022/02/25 05:07:33;;;;;;;80.95;35.20;;;;;;;;;;5096860;28;20020;-70
2022/02/25 05:09:59;;;;;;;86.40;36.20;;;;;;;;;;5078809;28;20031;-72
2022/02/25 05:12:26;;;;;;;87.00;37.10;;;;;;;;;;5096978;28;20488;-72
2022/02/25 05:20:24;;;;;;;98.55;40.03;;;;;;;;;;5096402;28;20089;-71
2022/02/25 05:23:00;;;;;;;103.13;39.08;;;;;;;;;;5096570;28;20052;-72
2022/02/25 05:25:28;;;;;;;85.32;35.42;;;;;;;;;;5096521;28;20023;-72
2022/02/25 05:27:56;;;;;;;101.68;38.70;;;;;;;;;;5096536;28;20503;-71
2022/02/25 05:30:23;;;;;;;74.57;33.40;;;;;;;;;;5078159;28;20024;-71
2022/02/25 05:32:50;;;;;;;89.60;37.33;;;;;;;;;;5078137;28;20081;-71
2022/02/25 05:35:17;;;;;;;103.53;41.90;;;;;;;;;;5096307;28;20472;-71
2022/02/25 05:37:44;;;;;;;78.07;36.35;;;;;;;;;;5078184;28;20017;-70
2022/02/25 05:40:11;;;;;;;86.47;36.97;;;;;;;;;;5096200;28;20361;-70
2022/02/25 05:42:38;;;;;;;81.20;34.50;;;;;;;;;;5096165;28;20372;-70
2022/02/25 05:45:05;;;;;;;77.82;34.83;;;;;;;;;;5077851;28;20539;-72
2022/02/25 05:47:32;;;;;;;86.45;33.45;;;;;;;;;;5077905;28;20020;-72
2022/02/25 05:49:58;;;;;;;88.78;34.90;;;;;;;;;;5096059;28;20024;-72
2022/02/25 05:52:25;;;;;;;80.07;35.50;;;;;;;;;;5077918;28;20118;-75
2022/02/25 05:54:51;;;;;;;98.60;41.30;;;;;;;;;;5095862;28;20111;-70
2022/02/25 05:57:17;;;;;;;80.97;36.33;;;;;;;;;;5094730;28;20140;-70
2022/02/25 05:59:44;;;;;;;83.50;32.03;;;;;;;;;;5077647;28;20131;-72
2022/02/25 06:02:10;;;;;;;77.30;35.10;;;;;;;;;;5077624;28;20426;-71
2022/02/25 06:04:37;;;;;;;76.30;34.47;;;;;;;;;;5095771;28;20032;-72
2022/02/25 06:07:03;;;;;;;87.13;37.28;;;;;;;;;;5077524;28;20025;-71
2022/02/25 06:09:29;;;;;;;81.28;34.00;;;;;;;;;;5095962;28;20165;-69
2022/02/25 06:11:55;;;;;;;72.18;34.28;;;;;;;;;;5077199;28;20111;-72
2022/02/25 06:14:22;;;;;;;75.70;35.55;;;;;;;;;;5076975;28;20082;-70
2022/02/25 06:16:48;;;;;;;90.53;36.20;;;;;;;;;;5077319;28;20499;-71
2022/02/25 06:19:14;;;;;;;86.25;36.45;;;;;;;;;;5077262;28;20051;-70
2022/02/25 06:21:40;;;;;;;77.85;36.80;;;;;;;;;;5095326;28;20067;-70
2022/02/25 06:24:07;;;;;;;78.40;35.58;;;;;;;;;;5095207;28;20438;-72
2022/02/25 06:26:33;;;;;;;88.07;39.65;;;;;;;;;;5095371;28;20020;-70
2022/02/25 06:29:00;;;;;;;98.78;38.45;;;;;;;;;;5095064;28;20027;-67
2022/02/25 06:31:27;;;;;;;97.70;44.40;;;;;;;;;;5076908;28;20028;-66
2022/02/25 06:33:53;;;;;;;100.93;48.13;;;;;;;;;;5095335;28;20053;-67
2022/02/25 06:36:19;;;;;;;111.63;53.20;;;;;;;;;;5093521;28;20093;-69
2022/02/25 06:38:48;;;;;;;126.03;54.85;;;;;;;;;;5097750;28;20040;-71
2022/02/25 06:41:15;;;;;;;129.65;62.58;;;;;;;;;;5114929;28;20028;-68
2022/02/25 06:43:41;;;;;;;118.40;61.35;;;;;;;;;;5096808;28;20023;-71
2022/02/25 06:46:11;;;;;;;138.35;68.22;;;;;;;;;;5114802;28;20027;-69
2022/02/25 06:48:37;;;;;;;145.93;70.97;;;;;;;;;;5111610;28;20043;-70
2022/02/25 06:51:03;;;;;;;168.05;77.50;;;;;;;;;;5096258;28;20492;-69
2022/02/25 06:53:30;;;;;;;162.82;76.45;;;;;;;;;;5115353;28;20077;-70
2022/02/25 06:55:56;;;;;;;166.43;74.63;;;;;;;;;;5096360;28;20027;-68
2022/02/25 06:58:22;;;;;;;163.57;78.07;;;;;;;;;;5115552;28;20036;-67
2022/02/25 07:00:48;;;;;;;188.73;92.90;;;;;;;;;;5097041;28;20380;-67
2022/02/25 07:03:15;;;;;;;176.38;83.55;;;;;;;;;;5115566;28;20025;-70
2022/02/25 07:05:41;;;;;;;171.63;84.22;;;;;;;;;;5097346;28;20043;-69
2022/02/25 07:08:08;;;;;;;163.20;80.70;;;;;;;;;;5114957;28;20027;-71
2022/02/25 07:10:35;;;;;;;116.55;59.55;;;;;;;;;;5114482;28;20023;-70
2022/02/25 07:13:02;;;;;;;94.38;49.03;;;;;;;;;;5096239;28;20051;-71
2022/02/25 07:15:28;;;;;;;81.97;35.95;;;;;;;;;;5114417;28;20126;-73
2022/02/25 07:17:54;;;;;;;59.95;29.42;;;;;;;;;;5095974;28;20433;-68
2022/02/25 07:20:20;;;;;;;60.75;28.17;;;;;;;;;;5095974;28;20357;-68
2022/02/25 07:22:47;;;;;;;61.40;26.33;;;;;;;;;;5114101;28;20110;-66
2022/02/25 07:25:14;;;;;;;52.58;24.45;;;;;;;;;;5114339;28;20030;-68
2022/02/25 07:27:40;;;;;;;48.50;23.27;;;;;;;;;;5113883;28;20028;-69
2022/02/25 07:30:07;;;;;;;53.17;22.38;;;;;;;;;;5095928;28;20032;-71
2022/02/25 07:32:34;;;;;;;64.95;25.40;;;;;;;;;;5114631;28;20059;-71
2022/02/25 07:35:00;;;;;;;57.28;24.92;;;;;;;;;;5095875;28;20059;-73
2022/02/25 07:37:26;;;;;;;58.97;26.17;;;;;;;;;;5114255;28;20375;-69
2022/02/25 07:39:52;;;;;;;61.88;26.88;;;;;;;;;;5114516;28;20055;-69
2022/02/25 07:42:18;;;;;;;64.25;30.20;;;;;;;;;;5095831;28;20032;-71
2022/02/25 07:44:45;;;;;;;63.35;29.73;;;;;;;;;;5078435;28;20032;-73
2022/02/25 07:47:11;;;;;;;68.97;31.55;;;;;;;;;;5085084;28;20124;-72
2022/02/25 07:49:38;;;;;;;91.63;45.05;;;;;;;;;;5075059;28;20055;-73
2022/02/25 07:52:04;;;;;;;91.10;42.13;;;;;;;;;;5075197;28;20496;-72
2022/02/25 07:54:31;;;;;;;81.93;40.55;;;;;;;;;;5095793;28;20043;-72
2022/02/25 07:56:58;;;;;;;89.90;41.03;;;;;;;;;;5093315;28;20353;-72
2022/02/25 07:59:24;;;;;;;90.05;43.15;;;;;;;;;;5077872;28;20114;-72
2022/02/25 08:01:50;;;;;;;84.82;41.67;;;;;;;;;;5080144;28;20063;-75
2022/02/25 08:04:16;;;;;;;89.28;41.30;;;;;;;;;;5075194;28;20027;-74
2022/02/25 08:06:45;;;;;;;95.50;44.38;;;;;;;;;;5093577;28;20108;-73
2022/02/25 08:09:12;;;;;;;91.38;43.40;;;;;;;;;;5093199;28;20054;-73
2022/02/25 08:11:38;;;;;;;76.88;37.38;;;;;;;;;;5074953;28;20030;-73
2022/02/25 08:14:04;;;;;;;70.53;32.55;;;;;;;;;;5092997;28;20105;-74
2022/02/25 08:16:31;;;;;;;63.55;32.13;;;;;;;;;;5093110;28;20032;-74
2022/02/25 08:18:57;;;;;;;65.90;35.30;;;;;;;;;;5092684;28;20051;-74
2022/02/25 08:21:23;;;;;;;74.65;37.42;;;;;;;;;;5075933;28;20027;-73
2022/02/25 08:23:50;;;;;;;89.20;42.70;;;;;;;;;;5074482;28;20119;-72
2022/02/25 08:26:16;;;;;;;90.90;41.08;;;;;;;;;;5092884;28;20036;-75
2022/02/25 08:28:42;;;;;;;77.72;38.95;;;;;;;;;;5074568;28;20024;-73
2022/02/25 08:31:11;;;;;;;79.07;40.72;;;;;;;;;;5100766;28;20057;-73
2022/02/25 08:33:40;;;;;;;80.68;42.20;;;;;;;;;;5112920;28;20102;-73
2022/02/25 08:36:07;;;;;;;87.30;42.28;;;;;;;;;;5094670;28;20046;-71
2022/02/25 08:38:34;;;;;;;91.35;43.78;;;;;;;;;;5094718;28;20054;-75
2022/02/25 08:41:00;;;;;;;83.78;42.42;;;;;;;;;;5094602;28;20397;-73
2022/02/25 08:43:27;;;;;;;93.35;44.45;;;;;;;;;;5111909;28;20023;-75
2022/02/25 08:45:53;;;;;;;77.07;43.20;;;;;;;;;;5107405;28;20040;-74
2022/02/25 08:48:20;;;;;;;87.35;43.03;;;;;;;;;;5113031;28;20042;-72
2022/02/25 08:50:46;;;;;;;84.68;43.03;;;;;;;;;;5112865;28;20073;-72
2022/02/25 08:53:12;;;;;;;78.70;40.55;;;;;;;;;;5088174;28;20030;-73
2022/02/25 08:55:39;;;;;;;69.05;36.38;;;;;;;;;;5092567;28;20032;-72
2022/02/25 08:58:05;;;;;;;52.63;26.63;;;;;;;;;;5074325;28;20111;-70
2022/02/25 09:00:32;;;;;;;44.92;25.83;;;;;;;;;;5092657;28;20507;-72
2022/02/25 09:02:58;;;;;;;53.63;27.48;;;;;;;;;;5092540;28;20039;-71
2022/02/25 09:05:25;;;;;;;49.63;26.90;;;;;;;;;;5092616;28;20104;-71
2022/02/25 09:07:52;;;;;;;48.80;26.45;;;;;;;;;;5087692;28;20055;-71
2022/02/25 09:10:18;;;;;;;49.47;27.45;;;;;;;;;;5092026;28;20028;-74
2022/02/25 09:12:45;;;;;;;51.38;26.15;;;;;;;;;;5074190;28;20557;-73
2022/02/25 09:15:12;;;;;;;41.33;24.20;;;;;;;;;;5073668;28;20131;-75
2022/02/25 09:17:39;;;;;;;44.08;23.60;;;;;;;;;;5074095;28;20111;-71
2022/02/25 09:20:07;;;;;;;40.58;21.65;;;;;;;;;;5088069;28;20123;-72
2022/02/25 09:22:33;;;;;;;39.60;20.58;;;;;;;;;;5098143;28;20101;-71
2022/02/25 09:25:01;;;;;;;30.95;16.65;;;;;;;;;;5111920;28;20047;-73
2022/02/25 09:27:28;;;;;;;29.00;17.77;;;;;;;;;;5112600;28;20051;-72
2022/02/25 09:29:55;;;;;;;35.33;18.00;;;;;;;;;;5112608;28;20106;-71
2022/02/25 09:32:21;;;;;;;35.35;18.42;;;;;;;;;;5115794;28;20106;-73
2022/02/25 09:34:48;;;;;;;27.58;15.52;;;;;;;;;;5116608;28;20476;-71
2022/02/25 09:37:14;;;;;;;31.67;16.40;;;;;;;;;;5098020;28;20118;-72
2022/02/25 09:39:40;;;;;;;34.10;16.10;;;;;;;;;;5116212;28;20024;-75
2022/02/25 09:42:09;;;;;;;31.88;16.45;;;;;;;;;;5097569;28;20050;-72
2022/02/25 09:44:35;;;;;;;29.23;15.10;;;;;;;;;;5096832;28;20024;-72
2022/02/25 09:47:01;;;;;;;31.30;16.25;;;;;;;;;;5097723;28;20163;-73
2022/02/25 09:49:28;;;;;;;31.02;15.45;;;;;;;;;;5116267;28;20016;-73
2022/02/25 09:51:56;;;;;;;28.02;15.80;;;;;;;;;;5116148;28;20036;-72
2022/02/25 09:54:22;;;;;;;30.67;15.38;;;;;;;;;;5097819;28;20023;-74
2022/02/25 09:56:49;;;;;;;22.35;11.50;;;;;;;;;;5115771;28;20062;-73
2022/02/25 09:59:18;;;;;;;20.90;11.68;;;;;;;;;;5097825;28;20484;-73
2022/02/25 10:01:45;;;;;;;17.50;10.30;;;;;;;;;;5097798;28;20038;-73
2022/02/25 10:04:16;;;;;;;18.20;10.50;;;;;;;;;;5097765;28;20090;-74
2022/02/25 10:06:43;;;;;;;34.80;13.25;;;;;;;;;;5115891;28;20772;-73
2022/02/25 10:09:37;;;;;;;26.15;11.35;;;13.60;68.50;;;;;;5097517;28;20055;-73
2022/02/25 10:12:12;;;;;;;29.20;12.27;;;13.70;67.00;;;;;;5115922;28;20024;-73
2022/02/25 10:14:47;;;;;;;24.73;12.80;;;13.90;66.60;;;;;;5087680;28;20052;-73
2022/02/25 10:17:25;;;;;;;22.40;11.77;;;14.00;67.10;;;;;;5086783;28;20126;-72
2022/02/25 10:19:54;;;;;;;23.65;11.90;;;14.10;65.70;;;;;;5115667;28;20032;-73
2022/02/25 10:22:31;;;;;;;34.70;14.75;;;14.10;64.60;;;;;;5112616;28;20082;-75
2022/02/25 10:24:59;;;;;;;26.85;13.95;;;14.20;65.40;;;;;;5095167;28;20028;-75
2022/02/25 10:27:30;;;;;;;25.17;13.40;;;14.40;65.30;;;;;;5076764;28;20028;-75
2022/02/25 10:30:22;;;;;;;;;;;14.70;66.40;;;;;;5095707;28;20028;-72
2022/02/25 10:32:55;;;;;;;20.50;11.32;;;15.00;65.40;;;;;;5090077;28;20440;-74
2022/02/25 10:35:25;;;;;;;26.38;12.07;;;15.20;62.10;;;;;;5076598;28;20036;-74
2022/02/25 10:37:55;;;;;;;27.83;14.00;;;15.40;62.10;;;;;;5076745;28;20028;-74
2022/02/25 10:40:22;;;;;;;27.40;13.50;;;;;;;;;;5095045;28;20025;-74
2022/02/25 10:42:48;;;;;;;22.08;12.82;;;;;;;;;;5094068;28;20107;-72
2022/02/25 10:45:26;;;;;;;24.65;13.15;;;15.90;79.00;;;;;;5094942;28;20028;-73
2022/02/25 10:48:01;;;;;;;23.13;12.23;;;17.20;71.10;;;;;;5076727;28;20034;-73
2022/02/25 10:50:27;;;;;;;20.75;10.98;;;17.50;75.60;;;;;;5094802;28;20028;-72
2022/02/25 10:52:54;;;;;;;24.83;11.90;;;;;;;;;;5076440;28;20237;-73
2022/02/25 10:55:28;;;;;;;21.13;10.38;;;;;;;;;;5094649;28;20039;-73
2022/02/25 10:57:56;;;;;;;24.33;11.48;;;;;;;;;;5094686;28;20099;-73
2022/02/25 11:00:23;;;;;;;22.80;13.75;;;;;;;;;;5094651;28;20027;-72
2022/02/25 11:02:50;;;;;;;20.73;13.30;;;;;;;;;;5076372;28;20027;-72
2022/02/25 11:05:18;;;;;;;30.42;16.95;;;;;;;;;;5094523;28;20036;-72
2022/02/25 11:07:45;;;;;;;22.73;13.52;;;;;;;;;;5094483;28;20020;-72
2022/02/25 11:10:13;;;;;;;19.92;12.48;;;17.70;59.00;;;;;;5076381;28;20031;-72
2022/02/25 11:12:41;;;;;;;20.48;10.38;;;21.50;52.60;;;;;;5094642;28;20024;-72
2022/02/25 11:15:09;;;;;;;18.00;10.52;;;;;;;;;;5094271;28;20095;-71
2022/02/25 11:17:36;;;;;;;17.13;11.13;;;;;;;;;;5094291;28;20101;-73
2022/02/25 11:20:05;;;;;;;15.50;9.77;;;21.60;52.70;;;;;;5076143;28;20024;-72
2022/02/25 11:22:39;;;;;;;22.15;11.00;;;21.80;50.00;;;;;;5094221;28;20029;-72
2022/02/25 11:25:07;;;;;;;23.33;15.80;;;22.10;48.90;;;;;;5094193;28;20039;-72
2022/02/25 11:27:33;;;;;;;28.50;11.68;;;22.60;49.20;;;;;;5094118;28;20085;-72
2022/02/25 11:30:09;;;;;;;19.67;10.20;;;23.50;47.50;;;;;;5075889;28;20024;-72
2022/02/25 11:32:39;;;;;;;17.10;9.90;;;;;;;;;;5075666;28;20495;-71
2022/02/25 11:35:31;;;;;;;19.15;11.00;;;;;;;;;;5093945;28;20063;-73
2022/02/25 11:38:05;;;;;;;19.60;10.07;;;;;;;;;;5089412;28;20039;-72
2022/02/25 11:40:59;;;;;;;21.35;10.93;;;23.10;47.80;;;;;;5094115;28;20031;-73
2022/02/25 11:43:36;;;;;;;21.70;10.40;;;;;;;;;;5075697;28;20032;-72
2022/02/25 11:46:03;;;;;;;16.20;9.50;;;23.60;46.60;;;;;;5092861;28;20035;-72
2022/02/25 11:48:38;;;;;;;13.88;9.27;;;;;;;;;;5074690;28;20020;-73
2022/02/25 11:51:06;;;;;;;18.90;9.25;;;;;;;;;;5091892;28;20392;-73
2022/02/25 11:53:32;;;;;;;15.82;9.30;;;25.10;46.80;;;;;;5084055;28;20349;-73
2022/02/25 11:56:16;;;;;;;15.18;8.45;;;25.90;43.60;;;;;;5093459;28;20036;-73
2022/02/25 11:58:49;;;;;;;17.73;7.80;;;25.10;43.40;;;;;;5092051;28;20478;-73
2022/02/25 12:01:20;;;;;;;12.82;7.55;;;;;;;;;;5092112;28;20115;-72
2022/02/25 12:04:07;;;;;;;12.20;7.88;;;;;;;;;;5093362;28;20028;-73
2022/02/25 12:07:01;;;;;;;14.63;8.50;;;27.40;41.20;;;;;;5093292;28;20134;-74
2022/02/25 12:09:50;;;;;;;12.40;7.38;;;27.10;40.80;;;;;;5093363;28;20099;-72
2022/02/25 12:12:28;;;;;;;16.20;8.00;;;26.80;40.10;;;;;;5093594;28;20032;-73
2022/02/25 12:15:06;;;;;;;14.73;8.80;;;26.40;41.90;;;;;;5092999;28;20500;-73
2022/02/25 12:17:51;;;;;;;20.60;11.90;;;26.50;41.70;;;;;;5093057;28;20473;-72
2022/02/25 12:20:24;;;;;;;19.83;10.88;;;24.90;41.10;;;;;;5074637;28;20028;-73
2022/02/25 12:23:03;;;;;;;17.50;10.38;;;24.40;43.60;;;;;;5092920;28;20028;-73
2022/02/25 12:25:44;;;;;;;19.48;13.10;;;24.70;44.70;;;;;;5093023;28;20081;-74
2022/02/25 12:28:28;;;;;;;19.75;12.73;;;24.30;43.20;;;;;;5074599;28;20025;-72
2022/02/25 12:31:17;;;;;;;17.77;13.13;;;24.30;43.60;;;;;;5092914;28;20031;-74
2022/02/25 12:33:43;;;;;;;18.55;11.68;;;23.80;43.80;;;;;;5028285;28;20209;-73
2022/02/25 12:36:27;;;;;;;16.40;10.43;;;24.00;43.80;;;;;;5092998;28;20131;-75
2022/02/25 12:39:03;;;;;;;16.95;9.80;;;24.50;44.70;;;;;;5093363;28;20061;-75
2022/02/25 12:41:47;;;;;;;20.67;11.00;;;23.60;44.30;;;;;;5092963;28;20024;-78
2022/02/25 12:44:24;;;;;;;15.95;9.63;;;24.40;44.80;;;;;;5092885;28;20468;-75
2022/02/25 12:46:59;;;;;;;18.17;8.90;;;24.90;44.20;;;;;;5092926;28;20115;-73
2022/02/25 12:49:28;;;;;;;13.23;7.55;;;25.10;42.80;;;;;;5092620;28;20073;-74
2022/02/25 12:51:59;;;;;;;14.45;7.85;;;24.20;44.10;;;;;;5092826;28;20032;-73
2022/02/25 12:54:26;;;;;;;15.82;9.63;;;;;;;;;;5092748;28;20441;-72
2022/02/25 12:56:58;;;;;;;16.52;9.43;;;25.20;42.80;;;;;;5092772;28;20069;-71
2022/02/25 12:59:35;;;;;;;14.98;10.02;;;23.90;44.00;;;;;;5092836;28;20024;-71
2022/02/25 13:02:12;;;;;;;15.45;9.73;;;23.60;44.50;;;;;;5092465;28;20031;-70
2022/02/25 13:04:46;;;;;;;17.35;10.15;;;23.90;44.60;;;;;;5074479;28;20104;-72
2022/02/25 13:07:14;;;;;;;20.63;9.40;;;23.20;44.60;;;;;;5095845;28;20101;-73
2022/02/25 13:09:41;;;;;;;15.27;8.88;;;;;;;;;;5096710;28;20032;-72
2022/02/25 13:12:10;;;;;;;16.63;8.75;;;23.60;44.20;;;;;;5077781;28;20023;-71
2022/02/25 13:14:41;;;;;;;18.52;9.18;;;23.70;44.90;;;;;;5084110;28;20044;-71
2022/02/25 13:17:12;;;;;;;14.82;9.13;;;24.20;44.40;;;;;;5091262;28;20032;-68
2022/02/25 13:19:42;;;;;;;21.08;8.93;;;24.30;44.10;;;;;;5096451;28;20024;-68
2022/02/25 13:22:20;;;;;;;17.77;10.13;;;23.60;44.30;;;;;;5098329;28;20111;-68
2022/02/25 13:24:54;;;;;;;15.27;8.48;;;23.60;44.80;;;;;;5103705;28;20031;-68
2022/02/25 13:27:43;;;;;;;14.10;7.85;;;24.10;44.50;;;;;;5101208;28;20028;-70
2022/02/25 13:30:20;;;;;;;15.45;8.75;;;25.10;45.10;;;;;;5102461;28;20017;-68
2022/02/25 13:33:13;;;;;;;19.05;7.90;;;24.10;45.20;;;;;;5088068;28;20416;-69
2022/02/25 13:35:40;;;;;;;15.27;8.30;;;22.50;47.10;;;;;;5086386;28;20034;-67
2022/02/25 13:38:19;;;;;;;17.80;6.82;;;21.10;48.40;;;;;;5085082;28;20140;-69
2022/02/25 13:40:45;;;;;;;14.25;7.25;;;;;;;;;;5082985;28;20035;-70
2022/02/25 13:43:30;;;;;;;16.27;10.63;;;;;;;;;;5100958;28;20023;-71
2022/02/25 13:46:18;;;;;;;20.73;10.30;;;19.90;51.20;;;;;;5101550;28;20099;-70
2022/02/25 13:54:47;;;;;;;19.33;10.80;;;17.80;54.10;;;;;;5116056;28;20088;-69
2022/02/25 13:57:14;;;;;;;15.43;9.07;;;17.70;55.00;;;;;;5097673;28;20035;-69
2022/02/25 13:59:47;;;;;;;19.50;9.57;;;17.30;56.10;;;;;;5115950;28;20031;-70
2022/02/25 14:02:15;;;;;;;18.95;8.75;;;17.80;56.40;;;;;;5097719;28;20028;-68
2022/02/25 14:04:47;;;;;;;17.38;7.55;;;17.80;56.60;;;;;;5115759;28;20081;-67
2022/02/25 14:07:12;;;;;;;;;;;17.40;58.20;;;;;;5105394;28;20047;-67
2022/02/25 14:09:40;;;;;;;22.80;11.38;;;17.30;56.50;;;;;;5115866;28;19958;-69
2022/02/25 14:12:06;;;;;;;28.85;9.52;;;17.00;56.50;;;;;;5115820;28;20031;-67
2022/02/25 14:14:38;;;;;;;18.75;8.70;;;16.70;58.00;;;;;;5096915;28;20048;-69